Mustafa Dayi — TCZF2 — position and weather

sailwx.info

Track history (hours):
 
Tides and Currents Weather Stations Pressure Air Temp Water Temp Dewpoint Dewpoint Depression Visibility Wind Speed Wind Dir Waves Ship Positions

Mustafa Dayi

Last reported at 2015-Mar-29 00:13 UTC. Time now 2015-Mar-29 03:09 UTC.
Position N 40°45' E 029°34'.

Length 183 m; draft 9.9 m.

Type: Ship (hazmat cat A). MMSI: 271042433.

Date/timePositionNaut miles runAvg speedWind from/ knotsBaromVisibWave heightAir tempDewpointWater temp
2015-Mar-29 00:13N 40°45' E 029°34'912.7
2015-Mar-28 23:32N 40°43' E 029°23'1111.4
2015-Mar-28 22:34N 40°42' E 029°09'1313.3
2015-Mar-28 21:33N 40°38' E 028°52'11 9.6
2015-Mar-28 20:26N 40°28' E 028°49'9 8.6
2015-Mar-28 19:25N 40°26' E 028°60'4 1.4
2015-Mar-28 16:29N 40°25' E 029°05'0 0.0
2015-Mar-28 15:05N 40°25' E 029°05'0 0.0
2015-Mar-28 14:13N 40°25' E 029°05'0 0.0
2015-Mar-28 13:32N 40°25' E 029°05'0 0.0
2015-Mar-28 12:17N 40°25' E 029°05'0 0.0
2015-Mar-28 08:27N 40°25' E 029°05'18 9.3
2015-Mar-28 06:33N 40°33' E 028°44'1413.7
2015-Mar-28 05:33N 40°47' E 028°42'11 5.1
2015-Mar-28 03:17N 40°58' E 028°41'0 0.0
2015-Mar-28 02:05N 40°58' E 028°41'0 0.0
2015-Mar-28 01:23N 40°58' E 028°41'0 0.0
2015-Mar-28 00:28N 40°58' E 028°41'0 0.0
2015-Mar-27 21:15N 40°58' E 028°41'0 0.0
2015-Mar-27 17:17N 40°58' E 028°41'  
2015-Mar-24 18:33N 35°60' E 032°55'  
Track history (hours):
 
Tides and Currents Weather Stations Pressure Air Temp Water Temp Dewpoint Dewpoint Depression Visibility Wind Speed Wind Dir Waves Ship Positions

Mustafa Dayi

Last reported at 2015-Mar-29 00:13 UTC. Time now 2015-Mar-29 03:09 UTC.
Position N 40°45' E 029°34'.

Length 183 m; draft 9.9 m.

Type: Ship (hazmat cat A). MMSI: 271042433.

Date/timePositionNaut miles runAvg speedWind from/ knotsBaromVisibWave heightAir tempDewpointWater temp
2015-Mar-29 00:13N 40°45' E 029°34'912.7
2015-Mar-28 23:32N 40°43' E 029°23'1111.4
2015-Mar-28 22:34N 40°42' E 029°09'1313.3
2015-Mar-28 21:33N 40°38' E 028°52'11 9.6
2015-Mar-28 20:26N 40°28' E 028°49'9 8.6
2015-Mar-28 19:25N 40°26' E 028°60'4 1.4
2015-Mar-28 16:29N 40°25' E 029°05'0 0.0
2015-Mar-28 15:05N 40°25' E 029°05'0 0.0
2015-Mar-28 14:13N 40°25' E 029°05'0 0.0
2015-Mar-28 13:32N 40°25' E 029°05'0 0.0
2015-Mar-28 12:17N 40°25' E 029°05'0 0.0
2015-Mar-28 08:27N 40°25' E 029°05'18 9.3
2015-Mar-28 06:33N 40°33' E 028°44'1413.7
2015-Mar-28 05:33N 40°47' E 028°42'11 5.1
2015-Mar-28 03:17N 40°58' E 028°41'0 0.0
2015-Mar-28 02:05N 40°58' E 028°41'0 0.0
2015-Mar-28 01:23N 40°58' E 028°41'0 0.0
2015-Mar-28 00:28N 40°58' E 028°41'0 0.0
2015-Mar-27 21:15N 40°58' E 028°41'0 0.0
2015-Mar-27 17:17N 40°58' E 028°41'  
2015-Mar-24 18:33N 35°60' E 032°55'  

Dump ship's entire track history